Provincetown, MA

6:04 PM EDT on April 23, 2018 (GMT -0400)
Provincetown Municipal

Weather History for KPVC - May, 2013

Change the Weather History Date:

Thursday, May 16, 2013

  Actual Average Record
Temperature  
Mean Temperature 63 °F -  
Max Temperature 75 °F 59 °F 84 °F (1951)
Min Temperature 51 °F 45 °F 35 °F (1999)
Degree Days  
Heating Degree Days 2    
Growing Degree Days 13 (Base 50)    
Moisture  
Dew Point 49 °F    
Average Humidity 69    
Maximum Humidity 100    
Minimum Humidity 31    
Precipitation  
Precipitation 0.00 in - - ()
Sea Level Pressure  
Sea Level Pressure 29.70 in    
Wind  
Wind Speed 11 mph (SW)    
Max Wind Speed 20 mph    
Max Gust Speed 28 mph    
Visibility 10 miles    
Events      
Averages and records for this station are not official NWS values.
T = Trace of Precipitation, MM = Missing Value Source: NWS Daily Summary

Daily Weather History Graph

Daily Weather History Graph

Search for Another Location

Airport or City:

Astronomy

May. 16, 2013 Rise Set
Actual Time 5:19 AM EDT 7:56 PM EDT
Civil Twilight 4:46 AM EDT 8:28 PM EDT
Nautical Twilight 4:06 AM EDT 9:08 PM EDT
Astronomical Twilight 3:21 AM EDT 9:54 PM EDT
Moon 10:51 AM EDT (5/16) 12:13 AM EDT (5/16)
Length of Visible Light 15h 41m
Length of Day
14h 37m
Waxing Crescent, 35% of the Moon is Illuminated
May 16
Waxing Crescent
May 18
First Quarter
May 25
Full
May 31
Last Quarter
Jun 8
New

Hourly Weather History & Observations

Time (EDT) Temp. Dew Point Humidity Pressure Visibility Wind Dir Wind Speed Gust Speed Precip Events Conditions
12:15 AM 55.4 °F 51.8 °F 88% 29.70 in 10.0 mi SW 12.7 mph - N/A   Scattered Clouds
12:35 AM 55.4 °F 51.8 °F 88% 29.69 in 10.0 mi SW 11.5 mph - N/A   Partly Cloudy
12:55 AM 53.6 °F 51.8 °F 94% 29.70 in 10.0 mi SW 9.2 mph - N/A   Clear
1:15 AM 53.6 °F 51.8 °F 94% 29.68 in 9.0 mi SSW 9.2 mph - N/A   Clear
1:35 AM 53.6 °F 51.8 °F 94% 29.68 in 8.0 mi SW 9.2 mph - N/A   Clear
1:55 AM 53.6 °F 51.8 °F 94% 29.68 in 7.0 mi SSW 10.4 mph - N/A   Clear
2:15 AM 53.6 °F 51.8 °F 94% 29.68 in 7.0 mi SW 10.4 mph - N/A   Clear
2:35 AM 51.8 °F 51.8 °F 100% 29.68 in 8.0 mi SW 8.1 mph - N/A   Clear
2:55 AM 51.8 °F 51.8 °F 100% 29.67 in 10.0 mi SW 8.1 mph - N/A   Clear
3:15 AM 51.8 °F 51.8 °F 100% 29.67 in 10.0 mi SW 9.2 mph - N/A   Clear
3:35 AM 51.8 °F 50.0 °F 94% 29.67 in 10.0 mi WSW 10.4 mph - N/A   Clear
3:55 AM 53.6 °F 51.8 °F 94% 29.66 in 10.0 mi WSW 10.4 mph - N/A   Clear
4:15 AM 53.6 °F 51.8 °F 94% 29.66 in 10.0 mi SW 9.2 mph - N/A   Clear
4:35 AM 53.6 °F 51.8 °F 94% 29.66 in 10.0 mi SW 9.2 mph - N/A   Clear
4:55 AM 51.8 °F 50.0 °F 94% 29.66 in 10.0 mi SW 6.9 mph - N/A   Clear
5:15 AM 51.8 °F 50.0 °F 94% 29.67 in 10.0 mi SW 6.9 mph - N/A   Clear
5:35 AM 51.8 °F 50.0 °F 94% 29.68 in 9.0 mi SW 5.8 mph - N/A   Clear
5:55 AM 51.8 °F 50.0 °F 94% 29.68 in 10.0 mi SW 6.9 mph - N/A   Clear
6:15 AM 51.8 °F 50.0 °F 94% 29.69 in 10.0 mi SW 8.1 mph - N/A   Clear
6:35 AM 53.6 °F 51.8 °F 94% 29.69 in 10.0 mi SW 6.9 mph - N/A   Clear
6:55 AM 55.4 °F 51.8 °F 88% 29.70 in 10.0 mi SW 8.1 mph - N/A   Clear
7:15 AM 57.2 °F 51.8 °F 82% 29.70 in 10.0 mi SW 9.2 mph - N/A   Clear
7:35 AM 57.2 °F 50.0 °F 77% 29.70 in 10.0 mi SW 9.2 mph - N/A   Clear
7:55 AM 57.2 °F 50.0 °F 77% 29.70 in 10.0 mi SW 10.4 mph - N/A   Clear
8:15 AM 60.8 °F 48.2 °F 63% 29.71 in 10.0 mi SW 9.2 mph - N/A   Clear
8:35 AM 60.8 °F 50.0 °F 68% 29.72 in 10.0 mi SW 11.5 mph - N/A   Clear
8:55 AM 62.6 °F 48.2 °F 59% 29.72 in 10.0 mi WSW 13.8 mph - N/A   Clear
9:15 AM 62.6 °F 48.2 °F 59% 29.71 in 10.0 mi WSW 12.7 mph - N/A   Clear
9:35 AM 64.4 °F 48.2 °F 56% 29.72 in 10.0 mi WSW 13.8 mph 19.6 mph N/A   Clear
9:55 AM 64.4 °F 48.2 °F 56% 29.73 in 10.0 mi WSW 15.0 mph - N/A   Clear
10:15 AM 66.2 °F 46.4 °F 49% 29.73 in 10.0 mi WSW 15.0 mph - N/A   Clear
10:35 AM 68.0 °F 48.2 °F 49% 29.73 in 10.0 mi SW 12.7 mph - N/A   Clear
10:55 AM 66.2 °F 48.2 °F 52% 29.73 in 10.0 mi SW 15.0 mph - N/A   Clear
11:15 AM 68.0 °F 51.8 °F 56% 29.73 in 10.0 mi SW 17.3 mph 23.0 mph N/A   Clear
11:35 AM 69.8 °F 50.0 °F 49% 29.73 in 10.0 mi SW 16.1 mph - N/A   Clear
11:55 AM 66.2 °F 48.2 °F 52% 29.73 in 10.0 mi SW 13.8 mph - N/A   Clear
12:15 PM 71.6 °F 50.0 °F 46% 29.71 in 10.0 mi SW 13.8 mph - N/A   Clear
12:35 PM 71.6 °F 48.2 °F 43% 29.71 in 10.0 mi SW 12.7 mph - N/A   Clear
12:55 PM 73.4 °F 48.2 °F 41% 29.70 in 10.0 mi WSW 12.7 mph - N/A   Clear
1:15 PM 75.2 °F 44.6 °F 34% 29.69 in 10.0 mi SW 13.8 mph 19.6 mph N/A   Clear
1:35 PM 73.4 °F 44.6 °F 36% 29.69 in 10.0 mi SW 11.5 mph - N/A   Clear
1:55 PM 73.4 °F 44.6 °F 36% 29.69 in 10.0 mi WSW 9.2 mph - N/A   Clear
2:15 PM 75.2 °F 42.8 °F 31% 29.69 in 10.0 mi SW 10.4 mph - N/A   Clear
2:35 PM 75.2 °F 42.8 °F 31% 29.68 in 10.0 mi SW 10.4 mph - N/A   Clear
3:15 PM 73.4 °F 46.4 °F 38% 29.68 in 10.0 mi SSW 15.0 mph 18.4 mph N/A   Clear
3:35 PM 71.6 °F 46.4 °F 41% 29.67 in 10.0 mi SW 18.4 mph 27.6 mph N/A   Clear
3:55 PM 69.8 °F 46.4 °F 43% 29.67 in 10.0 mi SSW 18.4 mph 24.2 mph N/A   Clear
4:15 PM 68.0 °F 48.2 °F 49% 29.67 in 10.0 mi SW 17.3 mph 23.0 mph N/A   Clear
4:35 PM 68.0 °F 48.2 °F 49% 29.67 in 10.0 mi SSW 18.4 mph 25.3 mph N/A   Clear
4:55 PM 66.2 °F 48.2 °F 52% 29.67 in 10.0 mi SW 18.4 mph 23.0 mph N/A   Clear
5:15 PM 68.0 °F 46.4 °F 46% 29.67 in 10.0 mi SW 19.6 mph 27.6 mph N/A   Clear
5:35 PM 66.2 °F 46.4 °F 49% 29.67 in 10.0 mi SSW 18.4 mph 24.2 mph N/A   Clear
6:15 PM 64.4 °F 48.2 °F 56% 29.68 in 10.0 mi SSW 18.4 mph 24.2 mph N/A   Clear
6:35 PM 64.4 °F 48.2 °F 56% 29.68 in 8.0 mi SSW 17.3 mph 23.0 mph N/A   Clear
6:55 PM 62.6 °F 48.2 °F 59% 29.68 in 10.0 mi SSW 16.1 mph 23.0 mph N/A   Clear
7:15 PM 60.8 °F 48.2 °F 63% 29.69 in 7.0 mi SSW 15.0 mph 18.4 mph N/A   Partly Cloudy
7:35 PM 60.8 °F 48.2 °F 63% 29.70 in 10.0 mi SSW 15.0 mph 20.7 mph N/A   Partly Cloudy
7:55 PM 59.0 °F 48.2 °F 67% 29.71 in 10.0 mi SSW 12.7 mph - N/A   Clear
8:15 PM 57.2 °F 48.2 °F 72% 29.72 in 10.0 mi SW 12.7 mph 18.4 mph N/A   Clear
8:35 PM 57.2 °F 48.2 °F 72% 29.72 in 10.0 mi SW 15.0 mph - N/A   Clear
8:55 PM 57.2 °F 48.2 °F 72% 29.73 in 10.0 mi SW 12.7 mph 17.3 mph N/A   Clear
9:15 PM 57.2 °F 48.2 °F 72% 29.74 in 10.0 mi SSW 12.7 mph - N/A   Clear
9:35 PM 55.4 °F 48.2 °F 77% 29.75 in 10.0 mi SW 11.5 mph - N/A   Clear
9:55 PM 55.4 °F 50.0 °F 82% 29.76 in 10.0 mi SW 11.5 mph - N/A   Clear
10:15 PM 55.4 °F 50.0 °F 82% 29.77 in 10.0 mi SW 10.4 mph - N/A   Clear
10:35 PM 55.4 °F 50.0 °F 82% 29.78 in 10.0 mi SW 9.2 mph - N/A   Clear
10:55 PM 55.4 °F 48.2 °F 77% 29.78 in 10.0 mi WSW 10.4 mph - N/A   Clear
11:15 PM 55.4 °F 48.2 °F 77% 29.78 in 10.0 mi WSW 10.4 mph - N/A   Clear
11:35 PM 55.4 °F 48.2 °F 77% 29.79 in 10.0 mi WSW 10.4 mph - N/A   Clear
11:55 PM 55.4 °F 48.2 °F 77% 29.78 in 10.0 mi WSW 10.4 mph - N/A   Clear